Stephen L. — WDE7070 — position and weather

sailwx.info

Track history (hours):
 
Tides and Currents Weather Stations Pressure Air Temp Water Temp Dewpoint Dewpoint Depression Visibility Wind Speed Wind Dir Waves Ship Positions

Stephen L.

Owner: TRIPLE S MARINE, LLC, MORGAN CITY, LA. More information available from US FCC via Universal Licensing System and Coast Guard Vessel Documentation Center.

Last reported at 2014-Oct-29 01:29 UTC. Time now 2014-Oct-30 13:46 UTC.
Position N 29°45' W 091°34'.

Length 20 m.

Type: Ship. MMSI: 367388580.

Date/timePositionNaut miles runAvg speedWind from/ knotsBaromVisibWave heightAir tempDewpointWater temp
2014-Oct-29 01:29N 29°45' W 091°34'4 4.7
2014-Oct-29 00:33N 29°42' W 091°30'7 6.9
2014-Oct-28 23:33N 29°39' W 091°23'7 6.7
2014-Oct-28 22:33N 29°39' W 091°16'4 4.3
2014-Oct-28 21:33N 29°41' W 091°11'2 2.0
2014-Oct-28 20:33N 29°41' W 091°09'4 3.9
2014-Oct-28 19:33N 29°38' W 091°06'21 4.0
2014-Oct-28 14:19N 29°34' W 090°42'3 1.8
2014-Oct-28 12:32N 29°37' W 090°42'2 2.5
2014-Oct-28 11:32N 29°36' W 090°39'2 1.9
2014-Oct-28 10:33N 29°35' W 090°37'0 0.0
2014-Oct-28 09:33N 29°35' W 090°37'0 0.0
2014-Oct-28 08:33N 29°35' W 090°37'0 0.0
2014-Oct-28 07:33N 29°35' W 090°37'0 0.0
2014-Oct-28 06:33N 29°35' W 090°37'0 0.0
2014-Oct-28 05:33N 29°35' W 090°37'0 0.1
2014-Oct-28 04:33N 29°35' W 090°37'2 1.6
2014-Oct-28 03:33N 29°35' W 090°36'0 0.1
2014-Oct-28 02:33N 29°35' W 090°36'0 0.1
2014-Oct-28 01:33N 29°35' W 090°36'2 1.7
2014-Oct-28 00:33N 29°34' W 090°34'4 3.5
2014-Oct-27 23:33N 29°34' W 090°30'5 4.7
2014-Oct-27 22:33N 29°33' W 090°24'24 3.4
2014-Oct-27 15:28N 29°50' W 090°04'9 0.2
2014-Oct-26 02:13N 29°57' W 090°09'3 4.9
2014-Oct-26 01:32N 29°55' W 090°06'48 1.9
2014-Oct-25 00:12N 29°33' W 090°55'5 7.6
2014-Oct-24 23:33N 29°37' W 090°59'7 6.6
2014-Oct-24 22:33N 29°40' W 091°06'1 0.9
2014-Oct-24 21:34N 29°40' W 091°06'2 1.5
2014-Oct-24 20:33N 29°39' W 091°06'5 5.4
2014-Oct-24 19:33N 29°41' W 091°12'1 1.4
2014-Oct-24 18:33N 29°40' W 091°14'1 1.1
2014-Oct-24 17:34N 29°41' W 091°13'0 0.0
2014-Oct-24 16:33N 29°41' W 091°13'0 0.0
2014-Oct-24 15:33N 29°41' W 091°13'0 0.0
2014-Oct-24 14:33N 29°41' W 091°13'0 0.0
2014-Oct-24 13:33N 29°41' W 091°13'0 0.0
2014-Oct-24 12:33N 29°41' W 091°13'0 0.0
2014-Oct-24 11:33N 29°41' W 091°13'0 0.0
2014-Oct-24 10:33N 29°41' W 091°13'0 0.0
2014-Oct-24 09:33N 29°41' W 091°13'0 0.0
2014-Oct-24 08:33N 29°41' W 091°13'0 0.0
2014-Oct-24 07:33N 29°41' W 091°13'0 0.0
2014-Oct-24 06:33N 29°41' W 091°13'0 0.0
2014-Oct-24 05:33N 29°41' W 091°13'0 0.0
2014-Oct-24 04:33N 29°41' W 091°13'0 0.0
2014-Oct-24 03:33N 29°41' W 091°13'0 0.0
2014-Oct-24 02:33N 29°41' W 091°13'0 0.0
2014-Oct-24 01:33N 29°41' W 091°13'0 0.0
2014-Oct-24 00:33N 29°41' W 091°13'0 0.0
2014-Oct-23 23:33N 29°41' W 091°13'0 0.0
2014-Oct-23 22:33N 29°41' W 091°13'0 0.0
2014-Oct-23 21:33N 29°41' W 091°13'0 0.0
2014-Oct-23 20:33N 29°41' W 091°13'0 0.0
2014-Oct-23 19:33N 29°41' W 091°13'0 0.0
2014-Oct-23 18:33N 29°41' W 091°13'0 0.0
2014-Oct-23 17:33N 29°41' W 091°13'0 0.0
2014-Oct-23 16:33N 29°41' W 091°13'0 0.0
2014-Oct-23 15:33N 29°41' W 091°13'0 0.0
2014-Oct-23 14:33N 29°41' W 091°13'0 0.0
2014-Oct-23 13:33N 29°41' W 091°13'0 0.0
2014-Oct-23 12:33N 29°41' W 091°13'0 0.0
2014-Oct-23 11:33N 29°41' W 091°13'0 0.0
2014-Oct-23 10:33N 29°41' W 091°13'0 0.0
2014-Oct-23 09:33N 29°41' W 091°13'0 0.0
2014-Oct-23 08:33N 29°41' W 091°13'0 0.0
2014-Oct-23 07:33N 29°41' W 091°13'0 0.0
2014-Oct-23 06:33N 29°41' W 091°13'0 0.0
2014-Oct-23 05:33N 29°41' W 091°13'0 0.0
2014-Oct-23 04:33N 29°41' W 091°13'0 0.0
2014-Oct-23 03:33N 29°41' W 091°13'0 0.0
2014-Oct-23 02:33N 29°41' W 091°13'0 0.0
2014-Oct-23 01:33N 29°41' W 091°13'0 0.0
2014-Oct-23 00:33N 29°41' W 091°13'0 0.0
2014-Oct-22 23:34N 29°41' W 091°13'0 0.3
2014-Oct-22 22:33N 29°41' W 091°13'6 5.7
2014-Oct-22 21:33N 29°38' W 091°19'8 5.9
2014-Oct-22 20:13N 29°41' W 091°28'3 0.1
2014-Oct-20 16:33N 29°42' W 091°30'8 8.0
2014-Oct-20 15:33N 29°39' W 091°22'8 8.1
2014-Oct-20 14:33N 29°41' W 091°13'0 0.5
2014-Oct-20 13:33N 29°41' W 091°13'0 0.0
2014-Oct-20 12:33N 29°41' W 091°13'0 0.0
2014-Oct-20 11:33N 29°41' W 091°13'0 0.0
2014-Oct-20 10:33N 29°41' W 091°13'0 0.0
2014-Oct-20 09:33N 29°41' W 091°13'0 0.0
2014-Oct-20 08:33N 29°41' W 091°13'0 0.0
2014-Oct-20 07:33N 29°41' W 091°13'0 0.0
2014-Oct-20 06:33N 29°41' W 091°13'0 0.0
2014-Oct-20 05:33N 29°41' W 091°13'0 0.0
2014-Oct-20 04:33N 29°41' W 091°13'0 0.0
2014-Oct-20 03:33N 29°41' W 091°13'0 0.0
2014-Oct-20 02:33N 29°41' W 091°13'0 0.0
2014-Oct-20 01:33N 29°41' W 091°13'0 0.0
2014-Oct-20 00:33N 29°41' W 091°13'0 0.0
2014-Oct-19 23:33N 29°41' W 091°13'0 0.0
2014-Oct-19 22:33N 29°41' W 091°13'0 0.0
2014-Oct-19 21:33N 29°41' W 091°13'0 0.0
2014-Oct-19 20:33N 29°41' W 091°13'0 0.0
2014-Oct-19 19:33N 29°41' W 091°13'0 0.0
2014-Oct-19 18:33N 29°41' W 091°13'0 0.0
2014-Oct-19 17:33N 29°41' W 091°13'0 0.0
2014-Oct-19 16:33N 29°41' W 091°13'3 3.3
2014-Oct-19 15:33N 29°41' W 091°09'3 2.8
2014-Oct-19 14:33N 29°40' W 091°06'0 0.1
2014-Oct-19 12:28N 29°40' W 091°06'1 0.2
2014-Oct-19 06:33N 29°39' W 091°06'6 6.2
2014-Oct-19 05:33N 29°41' W 091°13'1 0.5
2014-Oct-19 04:33N 29°42' W 091°13'7 7.2
2014-Oct-19 03:33N 29°49' W 091°10'8 8.3
2014-Oct-19 02:32N 29°56' W 091°15'  
Track history (hours):
 
Tides and Currents Weather Stations Pressure Air Temp Water Temp Dewpoint Dewpoint Depression Visibility Wind Speed Wind Dir Waves Ship Positions

Stephen L.

Owner: TRIPLE S MARINE, LLC, MORGAN CITY, LA. More information available from US FCC via Universal Licensing System and Coast Guard Vessel Documentation Center.

Last reported at 2014-Oct-29 01:29 UTC. Time now 2014-Oct-30 13:46 UTC.
Position N 29°45' W 091°34'.

Length 20 m.

Type: Ship. MMSI: 367388580.

Date/timePositionNaut miles runAvg speedWind from/ knotsBaromVisibWave heightAir tempDewpointWater temp
2014-Oct-29 01:29N 29°45' W 091°34'4 4.7
2014-Oct-29 00:33N 29°42' W 091°30'7 6.9
2014-Oct-28 23:33N 29°39' W 091°23'7 6.7
2014-Oct-28 22:33N 29°39' W 091°16'4 4.3
2014-Oct-28 21:33N 29°41' W 091°11'2 2.0
2014-Oct-28 20:33N 29°41' W 091°09'4 3.9
2014-Oct-28 19:33N 29°38' W 091°06'21 4.0
2014-Oct-28 14:19N 29°34' W 090°42'3 1.8
2014-Oct-28 12:32N 29°37' W 090°42'2 2.5
2014-Oct-28 11:32N 29°36' W 090°39'2 1.9
2014-Oct-28 10:33N 29°35' W 090°37'0 0.0
2014-Oct-28 09:33N 29°35' W 090°37'0 0.0
2014-Oct-28 08:33N 29°35' W 090°37'0 0.0
2014-Oct-28 07:33N 29°35' W 090°37'0 0.0
2014-Oct-28 06:33N 29°35' W 090°37'0 0.0
2014-Oct-28 05:33N 29°35' W 090°37'0 0.1
2014-Oct-28 04:33N 29°35' W 090°37'2 1.6
2014-Oct-28 03:33N 29°35' W 090°36'0 0.1
2014-Oct-28 02:33N 29°35' W 090°36'0 0.1
2014-Oct-28 01:33N 29°35' W 090°36'2 1.7
2014-Oct-28 00:33N 29°34' W 090°34'4 3.5
2014-Oct-27 23:33N 29°34' W 090°30'5 4.7
2014-Oct-27 22:33N 29°33' W 090°24'24 3.4
2014-Oct-27 15:28N 29°50' W 090°04'9 0.2
2014-Oct-26 02:13N 29°57' W 090°09'3 4.9
2014-Oct-26 01:32N 29°55' W 090°06'48 1.9
2014-Oct-25 00:12N 29°33' W 090°55'5 7.6
2014-Oct-24 23:33N 29°37' W 090°59'7 6.6
2014-Oct-24 22:33N 29°40' W 091°06'1 0.9
2014-Oct-24 21:34N 29°40' W 091°06'2 1.5
2014-Oct-24 20:33N 29°39' W 091°06'5 5.4
2014-Oct-24 19:33N 29°41' W 091°12'1 1.4
2014-Oct-24 18:33N 29°40' W 091°14'1 1.1
2014-Oct-24 17:34N 29°41' W 091°13'0 0.0
2014-Oct-24 16:33N 29°41' W 091°13'0 0.0
2014-Oct-24 15:33N 29°41' W 091°13'0 0.0
2014-Oct-24 14:33N 29°41' W 091°13'0 0.0
2014-Oct-24 13:33N 29°41' W 091°13'0 0.0
2014-Oct-24 12:33N 29°41' W 091°13'0 0.0
2014-Oct-24 11:33N 29°41' W 091°13'0 0.0
2014-Oct-24 10:33N 29°41' W 091°13'0 0.0
2014-Oct-24 09:33N 29°41' W 091°13'0 0.0
2014-Oct-24 08:33N 29°41' W 091°13'0 0.0
2014-Oct-24 07:33N 29°41' W 091°13'0 0.0
2014-Oct-24 06:33N 29°41' W 091°13'0 0.0
2014-Oct-24 05:33N 29°41' W 091°13'0 0.0
2014-Oct-24 04:33N 29°41' W 091°13'0 0.0
2014-Oct-24 03:33N 29°41' W 091°13'0 0.0
2014-Oct-24 02:33N 29°41' W 091°13'0 0.0
2014-Oct-24 01:33N 29°41' W 091°13'0 0.0
2014-Oct-24 00:33N 29°41' W 091°13'0 0.0
2014-Oct-23 23:33N 29°41' W 091°13'0 0.0
2014-Oct-23 22:33N 29°41' W 091°13'0 0.0
2014-Oct-23 21:33N 29°41' W 091°13'0 0.0
2014-Oct-23 20:33N 29°41' W 091°13'0 0.0
2014-Oct-23 19:33N 29°41' W 091°13'0 0.0
2014-Oct-23 18:33N 29°41' W 091°13'0 0.0
2014-Oct-23 17:33N 29°41' W 091°13'0 0.0
2014-Oct-23 16:33N 29°41' W 091°13'0 0.0
2014-Oct-23 15:33N 29°41' W 091°13'0 0.0
2014-Oct-23 14:33N 29°41' W 091°13'0 0.0
2014-Oct-23 13:33N 29°41' W 091°13'0 0.0
2014-Oct-23 12:33N 29°41' W 091°13'0 0.0
2014-Oct-23 11:33N 29°41' W 091°13'0 0.0
2014-Oct-23 10:33N 29°41' W 091°13'0 0.0
2014-Oct-23 09:33N 29°41' W 091°13'0 0.0
2014-Oct-23 08:33N 29°41' W 091°13'0 0.0
2014-Oct-23 07:33N 29°41' W 091°13'0 0.0
2014-Oct-23 06:33N 29°41' W 091°13'0 0.0
2014-Oct-23 05:33N 29°41' W 091°13'0 0.0
2014-Oct-23 04:33N 29°41' W 091°13'0 0.0
2014-Oct-23 03:33N 29°41' W 091°13'0 0.0
2014-Oct-23 02:33N 29°41' W 091°13'0 0.0
2014-Oct-23 01:33N 29°41' W 091°13'0 0.0
2014-Oct-23 00:33N 29°41' W 091°13'0 0.0
2014-Oct-22 23:34N 29°41' W 091°13'0 0.3
2014-Oct-22 22:33N 29°41' W 091°13'6 5.7
2014-Oct-22 21:33N 29°38' W 091°19'8 5.9
2014-Oct-22 20:13N 29°41' W 091°28'3 0.1
2014-Oct-20 16:33N 29°42' W 091°30'8 8.0
2014-Oct-20 15:33N 29°39' W 091°22'8 8.1
2014-Oct-20 14:33N 29°41' W 091°13'0 0.5
2014-Oct-20 13:33N 29°41' W 091°13'0 0.0
2014-Oct-20 12:33N 29°41' W 091°13'0 0.0
2014-Oct-20 11:33N 29°41' W 091°13'0 0.0
2014-Oct-20 10:33N 29°41' W 091°13'0 0.0
2014-Oct-20 09:33N 29°41' W 091°13'0 0.0
2014-Oct-20 08:33N 29°41' W 091°13'0 0.0
2014-Oct-20 07:33N 29°41' W 091°13'0 0.0
2014-Oct-20 06:33N 29°41' W 091°13'0 0.0
2014-Oct-20 05:33N 29°41' W 091°13'0 0.0
2014-Oct-20 04:33N 29°41' W 091°13'0 0.0
2014-Oct-20 03:33N 29°41' W 091°13'0 0.0
2014-Oct-20 02:33N 29°41' W 091°13'0 0.0
2014-Oct-20 01:33N 29°41' W 091°13'0 0.0
2014-Oct-20 00:33N 29°41' W 091°13'0 0.0
2014-Oct-19 23:33N 29°41' W 091°13'0 0.0
2014-Oct-19 22:33N 29°41' W 091°13'0 0.0
2014-Oct-19 21:33N 29°41' W 091°13'0 0.0
2014-Oct-19 20:33N 29°41' W 091°13'0 0.0
2014-Oct-19 19:33N 29°41' W 091°13'0 0.0
2014-Oct-19 18:33N 29°41' W 091°13'0 0.0
2014-Oct-19 17:33N 29°41' W 091°13'0 0.0
2014-Oct-19 16:33N 29°41' W 091°13'3 3.3
2014-Oct-19 15:33N 29°41' W 091°09'3 2.8
2014-Oct-19 14:33N 29°40' W 091°06'0 0.1
2014-Oct-19 12:28N 29°40' W 091°06'1 0.2
2014-Oct-19 06:33N 29°39' W 091°06'6 6.2
2014-Oct-19 05:33N 29°41' W 091°13'1 0.5
2014-Oct-19 04:33N 29°42' W 091°13'7 7.2
2014-Oct-19 03:33N 29°49' W 091°10'8 8.3
2014-Oct-19 02:32N 29°56' W 091°15'  

Dump ship's entire track history